Silver, Texas
Current Conditions -  °F | °C
As of 11:35 PM on Sunday 19 Oct 2014 (Local Time) from KSWW Reporting Station
Clear Clear  
Wind Chill: 67°   Ceiling: Unl
Heat Index: 67°   Visibility: 10mi
Dew Point: 57°   Wind: 9mph
Humidity: 70%   Direction: 140°SE
Pressure: 30.1"   Gusts: NA
Location:  32.07°N, 100.68°W
Report Text: KSWW 200435Z AUTO 14008KT 10SM CLR 20/14 A3010 RMK AO2 T01970140
Loading
Personal Weather Stations






























Interactive Weather Map
Tropical Storm Tracking
New forecast layout! Learn more

10-Day Weather Forecast

Advertisements
Track Severe Weather on mobile